createdAt,value
2022-12-18T00:01:23.688Z,101814.16
2022-12-18T00:03:52.196Z,101812.30
2022-12-18T00:06:20.381Z,101810.45
2022-12-18T00:08:47.678Z,101811.77
2022-12-18T00:11:17.111Z,101808.27
2022-12-18T00:13:44.655Z,101819.02
2022-12-18T00:16:15.314Z,101825.16
2022-12-18T00:18:42.808Z,101822.77
2022-12-18T00:21:12.348Z,101825.79
2022-12-18T00:23:41.711Z,101827.54
2022-12-18T00:26:12.916Z,101825.87
2022-12-18T00:28:39.638Z,101826.48
2022-12-18T00:31:11.110Z,101834.80
2022-12-18T00:33:39.036Z,101835.15
2022-12-18T00:36:09.970Z,101838.70
2022-12-18T00:38:37.942Z,101839.86
2022-12-18T00:41:05.760Z,101841.17
2022-12-18T00:43:37.157Z,101842.54
2022-12-18T00:46:04.620Z,101846.96
2022-12-18T00:48:32.818Z,101849.20
2022-12-18T00:50:59.510Z,101850.85
2022-12-18T00:53:26.280Z,101850.58
2022-12-18T00:55:53.050Z,101852.78
2022-12-18T00:58:19.731Z,101852.94
2022-12-18T01:00:46.526Z,101859.85
2022-12-18T01:03:14.688Z,101862.21
2022-12-18T01:05:42.898Z,101865.79
2022-12-18T01:08:10.007Z,101865.50
2022-12-18T01:10:36.942Z,101871.23
2022-12-18T01:13:03.734Z,101870.56
2022-12-18T01:15:30.404Z,101868.03
2022-12-18T01:17:57.285Z,101870.81
2022-12-18T01:20:24.081Z,101871.69
2022-12-18T01:22:50.789Z,101864.79
2022-12-18T01:25:17.814Z,101863.91
2022-12-18T01:27:44.612Z,101866.38
2022-12-18T01:30:11.690Z,101861.54
2022-12-18T01:32:38.554Z,101860.51
2022-12-18T01:35:06.299Z,101858.54
2022-12-18T01:37:33.077Z,101858.98
2022-12-18T01:39:59.856Z,101858.35
2022-12-18T01:42:26.642Z,101850.61
2022-12-18T01:45:00.085Z,101854.09
2022-12-18T01:47:26.874Z,101859.10
2022-12-18T01:49:55.009Z,101867.22
2022-12-18T01:52:25.886Z,101874.97
2022-12-18T01:54:53.541Z,101875.23
2022-12-18T01:57:22.480Z,101876.54
2022-12-18T01:59:53.494Z,101876.35
2022-12-18T02:02:21.683Z,101876.89
2022-12-18T02:04:49.707Z,101883.42
2022-12-18T02:07:46.296Z,101883.88
2022-12-18T02:10:25.188Z,101884.71
2022-12-18T02:13:07.601Z,101883.81
2022-12-18T02:15:41.845Z,101885.04
2022-12-18T02:18:14.951Z,101885.92
2022-12-18T02:20:49.645Z,101884.33
2022-12-18T02:23:48.240Z,101885.09
2022-12-18T02:26:29.152Z,101886.39
2022-12-18T02:29:02.767Z,101894.41
2022-12-18T02:31:37.166Z,101892.84
2022-12-18T02:34:07.237Z,101894.84
2022-12-18T02:36:36.693Z,101896.39
2022-12-18T02:39:06.854Z,101895.19
2022-12-18T02:41:36.625Z,101898.34
2022-12-18T02:44:09.362Z,101902.69
2022-12-18T02:46:41.046Z,101899.75
2022-12-18T02:49:22.235Z,101901.63
2022-12-18T02:52:10.690Z,101896.30
2022-12-18T02:55:02.476Z,101891.39
2022-12-18T02:57:53.837Z,101893.57
2022-12-18T03:00:32.070Z,101897.94
2022-12-18T03:03:14.878Z,101897.10
2022-12-18T03:05:47.311Z,101901.22
2022-12-18T03:08:27.869Z,101902.95
2022-12-18T03:11:07.259Z,101906.04
2022-12-18T03:13:39.849Z,101902.52
2022-12-18T03:16:11.625Z,101906.85
2022-12-18T03:18:48.711Z,101904.84
2022-12-18T03:21:28.909Z,101905.73
2022-12-18T03:23:57.339Z,101907.50
2022-12-18T03:26:28.365Z,101919.20
2022-12-18T03:29:05.373Z,101926.40
2022-12-18T03:31:33.401Z,101925.71
2022-12-18T03:34:04.594Z,101928.86
2022-12-18T03:36:32.125Z,101925.14
2022-12-18T03:38:59.358Z,101923.59
2022-12-18T03:41:39.952Z,101927.01
2022-12-18T03:44:20.177Z,101934.89
2022-12-18T03:46:53.123Z,101942.10
2022-12-18T03:49:30.637Z,101945.79
2022-12-18T03:52:05.430Z,101942.67
2022-12-18T03:54:34.401Z,101951.84
2022-12-18T03:57:23.088Z,101953.19
2022-12-18T03:59:55.029Z,101950.08
2022-12-18T04:02:24.095Z,101950.86
2022-12-18T04:04:54.058Z,101952.45
2022-12-18T04:07:21.736Z,101948.91
2022-12-18T04:09:51.021Z,101949.40
2022-12-18T04:12:17.775Z,101948.61
2022-12-18T04:14:45.327Z,101951.34
2022-12-18T04:17:12.783Z,101952.35
2022-12-18T04:19:39.887Z,101960.81
2022-12-18T04:22:10.819Z,101960.52
2022-12-18T04:24:37.818Z,101966.96
2022-12-18T04:27:05.121Z,101962.82
2022-12-18T04:29:33.142Z,101962.17
2022-12-18T04:31:59.954Z,101961.98
2022-12-18T04:34:26.997Z,101962.23
2022-12-18T04:36:53.751Z,101971.92
2022-12-18T04:39:20.498Z,101971.14
2022-12-18T04:41:47.291Z,101967.32
2022-12-18T04:44:14.193Z,101973.03
2022-12-18T04:46:41.014Z,101973.58
2022-12-18T04:49:08.256Z,101975.97
2022-12-18T04:51:34.931Z,101977.45
2022-12-18T04:54:01.802Z,101982.39
2022-12-18T04:56:28.538Z,101978.44
2022-12-18T04:58:55.207Z,101980.02
2022-12-18T05:01:22.063Z,101982.16
2022-12-18T05:03:49.021Z,101985.52
2022-12-18T05:06:15.725Z,101987.73
2022-12-18T05:08:42.593Z,101987.44
2022-12-18T05:11:12.661Z,101985.27
2022-12-18T05:13:39.877Z,101983.65
2022-12-18T05:16:08.746Z,101979.63
2022-12-18T05:18:36.438Z,101979.98
2022-12-18T05:21:03.847Z,101987.29
2022-12-18T05:23:30.825Z,101998.40
2022-12-18T05:26:00.006Z,102003.98
2022-12-18T05:28:29.330Z,102001.94
2022-12-18T05:30:59.246Z,102004.77
2022-12-18T05:33:27.432Z,102001.12
2022-12-18T05:35:59.157Z,102000.39
2022-12-18T05:38:27.540Z,102003.95
2022-12-18T05:40:54.844Z,102006.89
2022-12-18T05:43:22.769Z,102008.84
2022-12-18T05:45:50.525Z,102006.77
2022-12-18T05:48:17.594Z,102009.91
2022-12-18T05:50:46.670Z,102009.09
2022-12-18T05:53:15.398Z,102013.33
2022-12-18T05:55:43.856Z,102008.58
2022-12-18T05:58:12.624Z,102008.02
2022-12-18T06:00:41.986Z,102010.71
2022-12-18T06:03:10.628Z,102016.33
2022-12-18T06:05:40.407Z,102021.50
2022-12-18T06:08:07.261Z,102034.02
2022-12-18T06:10:34.069Z,102038.53
2022-12-18T06:13:01.533Z,102040.86
2022-12-18T06:15:28.554Z,102033.73
2022-12-18T06:17:55.268Z,102026.54
2022-12-18T06:20:22.095Z,102028.20
2022-12-18T06:22:48.932Z,102045.94
2022-12-18T06:25:16.434Z,102053.20
2022-12-18T06:27:43.341Z,102064.54
2022-12-18T06:30:11.993Z,102065.23
2022-12-18T06:32:39.347Z,102075.21
2022-12-18T06:35:07.090Z,102078.59
2022-12-18T06:37:33.854Z,102081.59
2022-12-18T06:40:01.465Z,102087.20
2022-12-18T06:42:29.250Z,102094.09
2022-12-18T06:44:56.037Z,102098.16
2022-12-18T06:47:22.766Z,102098.58
2022-12-18T06:49:49.545Z,102099.09
2022-12-18T06:52:17.084Z,102102.90
2022-12-18T06:54:43.824Z,102111.73
2022-12-18T06:57:10.680Z,102124.41
2022-12-18T06:59:37.462Z,102127.16
2022-12-18T07:02:05.059Z,102125.61
2022-12-18T07:04:32.527Z,102132.86
2022-12-18T07:06:59.316Z,102136.16
2022-12-18T07:09:26.203Z,102136.38
2022-12-18T07:11:53.716Z,102128.55
2022-12-18T07:14:20.536Z,102131.52
2022-12-18T07:16:48.147Z,102134.92
2022-12-18T07:19:15.367Z,102132.39
2022-12-18T07:21:42.317Z,102126.69
2022-12-18T07:24:09.061Z,102121.98
2022-12-18T07:26:35.793Z,102129.50
2022-12-18T07:29:02.618Z,102129.23
2022-12-18T07:31:29.360Z,102125.73
2022-12-18T07:33:56.421Z,102125.97
2022-12-18T07:36:23.298Z,102128.81
2022-12-18T07:38:52.357Z,102135.95
2022-12-18T07:41:19.631Z,102135.05
2022-12-18T07:43:46.999Z,102131.99
2022-12-18T07:46:15.316Z,102129.70
2022-12-18T07:48:44.246Z,102130.63
2022-12-18T07:51:13.953Z,102128.30
2022-12-18T07:53:41.815Z,102127.15
2022-12-18T07:56:27.043Z,102128.89
2022-12-18T07:58:57.070Z,102127.88
2022-12-18T08:01:24.518Z,102126.09
2022-12-18T08:03:52.104Z,102125.80
2022-12-18T08:06:19.347Z,102128.60
2022-12-18T08:08:50.712Z,102140.02
2022-12-18T08:11:17.494Z,102145.48
2022-12-18T08:13:44.292Z,102153.64
2022-12-18T08:16:11.235Z,102160.00
2022-12-18T08:18:38.263Z,102155.79
2022-12-18T08:21:12.830Z,102152.73
2022-12-18T08:23:43.079Z,102150.30
2022-12-18T08:26:12.477Z,102160.89
2022-12-18T08:28:39.761Z,102154.58
2022-12-18T08:31:08.247Z,102151.23
2022-12-18T08:33:36.850Z,102141.99
2022-12-18T08:36:05.185Z,102137.10
2022-12-18T08:38:33.482Z,102134.65
2022-12-18T08:41:05.616Z,102137.29
2022-12-18T08:43:50.908Z,102136.02
2022-12-18T08:46:18.550Z,102135.86
2022-12-18T08:48:45.805Z,102132.80
2022-12-18T08:51:13.946Z,102137.83
2022-12-18T08:53:41.193Z,102138.20
2022-12-18T08:56:08.421Z,102141.18
2022-12-18T08:58:35.192Z,102150.16
2022-12-18T09:01:06.087Z,102156.38
2022-12-18T09:03:34.658Z,102159.65
2022-12-18T09:06:01.928Z,102158.62
2022-12-18T09:08:29.651Z,102162.60
2022-12-18T09:10:56.415Z,102165.35
2022-12-18T09:13:23.598Z,102166.13
2022-12-18T09:15:54.872Z,102166.78
2022-12-18T09:18:23.791Z,102171.73
2022-12-18T09:20:52.830Z,102167.20
2022-12-18T09:23:20.180Z,102169.27
2022-12-18T09:25:47.050Z,102171.21
2022-12-18T09:28:16.125Z,102170.56
2022-12-18T09:30:48.433Z,102172.89
2022-12-18T09:33:16.516Z,102161.83
2022-12-18T09:35:47.252Z,102153.76
2022-12-18T09:38:19.967Z,102142.33
2022-12-18T09:40:59.227Z,102143.95
2022-12-18T09:43:50.681Z,102139.73
2022-12-18T09:46:40.979Z,102141.60
2022-12-18T09:49:15.256Z,102145.83
2022-12-18T09:51:51.391Z,102141.73
2022-12-18T09:54:40.097Z,102142.28
2022-12-18T09:57:11.278Z,102149.31
2022-12-18T09:59:42.417Z,102151.02
2022-12-18T10:02:25.870Z,102139.11
2022-12-18T10:05:15.602Z,102130.80
2022-12-18T10:08:21.639Z,102134.41
2022-12-18T10:10:55.498Z,102145.91
2022-12-18T10:13:40.139Z,102149.77
2022-12-18T10:16:54.597Z,102148.27
2022-12-18T10:19:30.546Z,102152.64
2022-12-18T10:22:16.003Z,102166.09
2022-12-18T10:24:47.790Z,102175.66
2022-12-18T10:27:18.188Z,102182.67
2022-12-18T10:29:46.630Z,102179.31
2022-12-18T10:32:23.030Z,102181.69
2022-12-18T10:34:56.699Z,102188.60
2022-12-18T10:37:29.272Z,102190.69
2022-12-18T10:40:25.500Z,102188.69
2022-12-18T10:43:12.617Z,102185.09
2022-12-18T10:45:40.208Z,102183.30
2022-12-18T10:48:22.909Z,102181.66
2022-12-18T10:53:42.005Z,102179.79
2022-12-18T10:56:11.793Z,102179.00
2022-12-18T10:58:40.949Z,102175.88
2022-12-18T11:01:14.940Z,102172.19
2022-12-18T11:03:45.554Z,102165.13
2022-12-18T11:06:19.065Z,102159.63
2022-12-18T11:09:01.132Z,102152.81
2022-12-18T11:11:29.676Z,102153.40
2022-12-18T11:14:02.664Z,102150.07
2022-12-18T11:16:34.363Z,102143.86
2022-12-18T11:19:21.656Z,102156.88
2022-12-18T11:21:49.715Z,102148.40
2022-12-18T11:24:38.448Z,102149.38
2022-12-18T11:27:16.220Z,102153.67
2022-12-18T11:29:46.620Z,102162.22
2022-12-18T11:32:39.909Z,102172.02
2022-12-18T11:35:20.199Z,102185.56
2022-12-18T11:37:58.129Z,102184.14
2022-12-18T11:40:40.848Z,102178.11
2022-12-18T11:43:42.831Z,102181.95
2022-12-18T11:47:10.543Z,102180.77
2022-12-18T11:49:42.052Z,102175.23
2022-12-18T11:52:22.243Z,102162.65
2022-12-18T11:54:52.646Z,102158.94
2022-12-18T11:57:40.265Z,102152.41
2022-12-18T12:00:56.112Z,102148.97
2022-12-18T12:03:47.171Z,102140.94
2022-12-18T12:06:15.134Z,102129.74
2022-12-18T12:09:12.824Z,102128.00
2022-12-18T12:11:55.088Z,102122.77
2022-12-18T12:14:28.003Z,102120.34
2022-12-18T12:17:28.220Z,102124.77
2022-12-18T12:19:59.704Z,102123.05
2022-12-18T12:22:58.788Z,102124.80
2022-12-18T12:25:41.310Z,102109.52
2022-12-18T12:28:47.338Z,102101.00
2022-12-18T12:31:33.272Z,102094.41
2022-12-18T12:34:07.862Z,102098.10
2022-12-18T12:36:46.209Z,102099.25
2022-12-18T12:39:24.066Z,102100.13
2022-12-18T12:42:10.143Z,102098.40
2022-12-18T12:44:55.665Z,102095.88
2022-12-18T12:47:40.057Z,102098.64
2022-12-18T12:50:18.897Z,102096.69
2022-12-18T12:52:50.342Z,102094.90
2022-12-18T12:55:29.235Z,102097.45
2022-12-18T12:58:58.042Z,102091.96
2022-12-18T13:01:31.371Z,102095.74
2022-12-18T13:04:13.695Z,102093.45
2022-12-18T13:06:50.871Z,102103.16
2022-12-18T13:09:17.896Z,102104.14
2022-12-18T13:12:06.216Z,102109.59
2022-12-18T13:14:38.439Z,102117.81
2022-12-18T13:17:29.729Z,102126.63
2022-12-18T13:20:08.932Z,102138.22
2022-12-18T13:22:39.869Z,102144.05
2022-12-18T13:25:42.241Z,102153.66
2022-12-18T13:28:16.690Z,102157.02
2022-12-18T13:30:47.831Z,102155.61
2022-12-18T13:33:18.591Z,102155.01
2022-12-18T13:35:48.241Z,102147.36
2022-12-18T13:38:37.120Z,102140.09
2022-12-18T13:41:22.614Z,102137.84
2022-12-18T13:43:53.112Z,102146.85
2022-12-18T13:46:30.636Z,102154.96
2022-12-18T13:49:03.423Z,102162.60
2022-12-18T13:51:33.403Z,102167.19
2022-12-18T13:54:14.450Z,102169.98
2022-12-18T13:56:46.157Z,102183.27
2022-12-18T13:59:26.735Z,102185.50
2022-12-18T14:01:59.973Z,102188.55
2022-12-18T14:04:35.115Z,102192.19
2022-12-18T14:07:04.705Z,102199.70
2022-12-18T14:09:36.721Z,102206.35
2022-12-18T14:12:24.460Z,102211.55
2022-12-18T14:14:55.160Z,102220.88
2022-12-18T14:17:23.452Z,102226.88
2022-12-18T14:19:51.984Z,102229.26
2022-12-18T14:22:22.583Z,102228.77
2022-12-18T14:25:25.768Z,102232.84
2022-12-18T14:27:55.285Z,102229.54
2022-12-18T14:30:45.475Z,102217.75
2022-12-18T14:33:22.005Z,102204.88
2022-12-18T14:36:06.054Z,102196.84
2022-12-18T14:38:40.510Z,102193.40
2022-12-18T14:41:16.234Z,102193.70
2022-12-18T14:43:45.395Z,102195.69
2022-12-18T14:46:33.962Z,102190.06
2022-12-18T14:49:33.956Z,102187.54
2022-12-18T14:52:06.796Z,102178.14
2022-12-18T14:54:37.751Z,102166.67
2022-12-18T14:57:26.980Z,102154.42
2022-12-18T14:59:53.972Z,102152.13
2022-12-18T15:02:27.245Z,102139.12
2022-12-18T15:05:13.536Z,102136.52
2022-12-18T15:07:51.423Z,102135.26
2022-12-18T15:10:21.527Z,102137.18
2022-12-18T15:13:08.257Z,102133.59
2022-12-18T15:15:42.955Z,102132.17
2022-12-18T15:18:12.859Z,102134.15
2022-12-18T15:20:59.599Z,102135.09
2022-12-18T15:23:26.354Z,102138.64
2022-12-18T15:26:02.900Z,102140.94
2022-12-18T15:28:39.109Z,102148.23
2022-12-18T15:31:11.863Z,102156.62
2022-12-18T15:33:45.161Z,102154.94
2022-12-18T15:36:24.010Z,102157.09
2022-12-18T15:38:56.048Z,102151.84
2022-12-18T15:42:09.949Z,102145.95
2022-12-18T15:44:37.793Z,102137.52
2022-12-18T15:47:11.841Z,102138.77
2022-12-18T15:49:38.833Z,102138.77
2022-12-18T15:52:06.135Z,102137.33
2022-12-18T15:54:53.858Z,102139.76
2022-12-18T15:57:23.186Z,102140.27
2022-12-18T15:59:53.147Z,102144.50
2022-12-18T16:02:22.943Z,102146.77
2022-12-18T16:04:51.017Z,102144.73
2022-12-18T16:07:22.922Z,102136.26
2022-12-18T16:09:52.925Z,102134.59
2022-12-18T16:12:25.461Z,102123.84
2022-12-18T16:14:52.866Z,102119.30
2022-12-18T16:17:20.440Z,102112.30
2022-12-18T16:19:47.241Z,102110.71
2022-12-18T16:22:25.746Z,102115.55
2022-12-18T16:24:54.955Z,102122.56
2022-12-18T16:27:23.588Z,102126.30
2022-12-18T16:29:51.045Z,102115.36
2022-12-18T16:32:20.731Z,102114.79
2022-12-18T16:34:47.892Z,102111.66
2022-12-18T16:37:15.769Z,102115.48
2022-12-18T16:39:43.208Z,102110.91
2022-12-18T16:42:17.503Z,102104.75
2022-12-18T16:44:46.782Z,102103.45
2022-12-18T16:47:15.209Z,102104.55
2022-12-18T16:49:45.337Z,102104.77
2022-12-18T16:52:13.115Z,102106.73
2022-12-18T16:54:40.205Z,102109.90
2022-12-18T16:57:08.624Z,102115.03
2022-12-18T16:59:35.528Z,102121.23
2022-12-18T17:02:06.336Z,102124.60
2022-12-18T17:04:33.713Z,102128.27
2022-12-18T17:07:01.010Z,102130.73
2022-12-18T17:09:27.855Z,102126.42
2022-12-18T17:11:55.357Z,102128.25
2022-12-18T17:14:24.243Z,102127.73
2022-12-18T17:17:19.848Z,102117.46
2022-12-18T17:19:43.401Z,102117.20
2022-12-18T17:22:10.215Z,102125.42
2022-12-18T17:24:37.006Z,102120.41
2022-12-18T17:27:04.569Z,102124.98
2022-12-18T17:29:32.763Z,102128.25
2022-12-18T17:32:00.509Z,102129.80
2022-12-18T17:34:28.255Z,102121.45
2022-12-18T17:36:55.826Z,102112.96
2022-12-18T17:39:22.898Z,102104.50
2022-12-18T17:41:50.005Z,102099.08
2022-12-18T17:44:18.185Z,102095.95
2022-12-18T17:46:46.187Z,102101.89
2022-12-18T17:49:14.303Z,102108.50
2022-12-18T17:51:52.642Z,102104.00
2022-12-18T17:54:41.093Z,102092.98
2022-12-18T17:57:11.048Z,102095.55
2022-12-18T17:59:38.072Z,102095.05
2022-12-18T18:02:06.962Z,102097.11
2022-12-18T18:04:34.082Z,102100.75
2022-12-18T18:07:02.064Z,102098.73
2022-12-18T18:09:29.207Z,102102.52
2022-12-18T18:12:15.014Z,102100.44
2022-12-18T18:14:41.930Z,102098.48
2022-12-18T18:17:08.869Z,102097.94
2022-12-18T18:19:35.726Z,102103.59
2022-12-18T18:22:03.130Z,102096.95
2022-12-18T18:24:33.013Z,102090.17
2022-12-18T18:26:59.829Z,102088.90
2022-12-18T18:29:29.803Z,102090.47
2022-12-18T18:31:56.806Z,102098.05
2022-12-18T18:34:26.273Z,102099.88
2022-12-18T18:36:53.755Z,102089.16
2022-12-18T18:39:21.081Z,102081.91
2022-12-18T18:41:48.759Z,102075.56
2022-12-18T18:44:17.268Z,102073.23
2022-12-18T18:46:53.940Z,102078.33
2022-12-18T18:49:23.687Z,102084.61
2022-12-18T18:51:51.690Z,102086.70
2022-12-18T18:54:20.806Z,102085.20
2022-12-18T18:59:37.945Z,102089.80
2022-12-18T19:02:05.342Z,102088.07
2022-12-18T19:04:35.947Z,102078.05
2022-12-18T19:07:04.772Z,102087.58
2022-12-18T19:09:32.133Z,102088.11
2022-12-18T19:12:19.694Z,102086.11
2022-12-18T19:14:46.843Z,102082.24
2022-12-18T19:17:13.636Z,102085.91
2022-12-18T19:19:40.676Z,102088.53
2022-12-18T19:22:08.925Z,102081.58
2022-12-18T19:24:36.218Z,102080.33
2022-12-18T19:27:03.422Z,102081.70
2022-12-18T19:29:30.404Z,102086.07
2022-12-18T19:31:57.204Z,102087.14
2022-12-18T19:34:24.053Z,102085.36
2022-12-18T19:36:55.274Z,102086.16
2022-12-18T19:39:26.266Z,102090.30
2022-12-18T19:41:53.086Z,102090.49
2022-12-18T19:44:21.065Z,102086.92
2022-12-18T19:46:51.591Z,102082.89
2022-12-18T19:49:18.563Z,102083.91
2022-12-18T19:51:45.756Z,102087.81
2022-12-18T19:54:16.692Z,102094.81
2022-12-18T19:56:45.290Z,102097.39
2022-12-18T19:59:13.497Z,102099.34
2022-12-18T20:01:40.866Z,102104.45
2022-12-18T20:04:07.918Z,102100.63
2022-12-18T20:06:53.384Z,102095.48
2022-12-18T20:09:20.972Z,102088.59
2022-12-18T20:11:48.952Z,102084.73
2022-12-18T20:14:16.897Z,102084.66
2022-12-18T20:16:51.744Z,102085.25
2022-12-18T20:19:18.734Z,102083.64
2022-12-18T20:21:45.814Z,102076.96
2022-12-18T20:24:12.707Z,102074.69
2022-12-18T20:26:40.147Z,102068.86
2022-12-18T20:29:07.041Z,102063.40
2022-12-18T20:31:34.005Z,102068.83
2022-12-18T20:34:02.647Z,102071.31
2022-12-18T20:36:31.863Z,102071.53
2022-12-18T20:39:03.857Z,102069.64
2022-12-18T20:41:33.523Z,102074.41
2022-12-18T20:44:09.847Z,102073.36
2022-12-18T20:46:56.172Z,102072.36
2022-12-18T20:49:25.329Z,102062.96
2022-12-18T20:51:55.602Z,102058.70
2022-12-18T20:54:24.379Z,102059.27
2022-12-18T20:56:51.519Z,102062.81
2022-12-18T20:59:19.544Z,102051.44
2022-12-18T21:01:48.863Z,102043.54
2022-12-18T21:04:18.224Z,102036.73
2022-12-18T21:06:51.312Z,102032.81
2022-12-18T21:09:21.149Z,102026.27
2022-12-18T21:12:07.744Z,102022.42
2022-12-18T21:14:39.867Z,102022.16
2022-12-18T21:17:06.920Z,102018.71
2022-12-18T21:19:36.918Z,102027.45
2022-12-18T21:22:04.451Z,102021.38
2022-12-18T21:24:32.672Z,102018.45
2022-12-18T21:26:59.903Z,102015.69
2022-12-18T21:29:27.216Z,102014.18
2022-12-18T21:31:54.471Z,102010.71
2022-12-18T21:34:28.622Z,102004.64
2022-12-18T21:36:58.654Z,102001.69
2022-12-18T21:39:28.642Z,102000.91
2022-12-18T21:42:15.849Z,101994.54
2022-12-18T21:44:44.180Z,101997.53
2022-12-18T21:47:20.862Z,101996.20
2022-12-18T21:49:52.146Z,101990.71
2022-12-18T21:52:21.563Z,101988.41
2022-12-18T21:54:50.841Z,101983.70
2022-12-18T21:57:18.229Z,101981.76
2022-12-18T21:59:45.164Z,101981.84
2022-12-18T22:02:15.906Z,101983.08
2022-12-18T22:04:45.423Z,101977.08
2022-12-18T22:07:14.555Z,101972.89
2022-12-18T22:09:42.475Z,101967.69
2022-12-18T22:12:11.996Z,101962.64
2022-12-18T22:14:38.760Z,101957.51
2022-12-18T22:17:05.804Z,101955.25
2022-12-18T22:19:38.118Z,101949.23
2022-12-18T22:22:09.682Z,101952.98
2022-12-18T22:24:36.515Z,101952.67
2022-12-18T22:27:03.269Z,101952.23
2022-12-18T22:29:48.690Z,101950.61
2022-12-18T22:32:16.606Z,101951.88
2022-12-18T22:34:44.840Z,101952.39
2022-12-18T22:37:12.102Z,101950.16
2022-12-18T22:39:39.558Z,101950.54
2022-12-18T22:42:07.114Z,101948.56
2022-12-18T22:44:33.942Z,101949.46
2022-12-18T22:47:06.455Z,101944.96
2022-12-18T22:49:34.846Z,101934.44
2022-12-18T22:52:03.615Z,101931.75
2022-12-18T22:54:30.443Z,101927.92
2022-12-18T22:56:57.534Z,101917.09
2022-12-18T22:59:24.449Z,101918.07
2022-12-18T23:01:58.451Z,101912.68
2022-12-18T23:04:36.207Z,101919.42
2022-12-18T23:07:05.671Z,101925.10
2022-12-18T23:09:33.018Z,101923.23
2022-12-18T23:12:00.279Z,101918.42
2022-12-18T23:14:28.128Z,101912.78
2022-12-18T23:16:56.033Z,101911.80
2022-12-18T23:19:24.129Z,101913.11
2022-12-18T23:21:51.544Z,101909.44
2022-12-18T23:24:18.373Z,101912.30
2022-12-18T23:26:46.517Z,101906.27
2022-12-18T23:29:13.219Z,101902.89
2022-12-18T23:31:40.213Z,101901.33
2022-12-18T23:34:07.557Z,101898.48
2022-12-18T23:36:45.715Z,101895.68
2022-12-18T23:39:29.065Z,101901.25
2022-12-18T23:41:58.113Z,101900.14
2022-12-18T23:44:25.250Z,101897.36
2022-12-18T23:46:52.204Z,101896.36
2022-12-18T23:49:18.989Z,101893.90
2022-12-18T23:51:45.817Z,101887.64
2022-12-18T23:54:12.513Z,101881.61
2022-12-18T23:56:39.249Z,101875.58
2022-12-18T23:59:06.280Z,101871.02
